sensor_id;sensor_type;location;lat;lon;timestamp;P1;durP1;ratioP1;P2;durP2;ratioP2
39620;SDS011;25309;48.686;9.170;2023-08-31T00:01:19;2.07;;;1.87;;
39620;SDS011;25309;48.686;9.170;2023-08-31T00:03:46;3.50;;;2.00;;
39620;SDS011;25309;48.686;9.170;2023-08-31T00:06:13;4.17;;;1.93;;
39620;SDS011;25309;48.686;9.170;2023-08-31T00:08:40;3.10;;;1.70;;
39620;SDS011;25309;48.686;9.170;2023-08-31T00:11:09;2.90;;;1.90;;
39620;SDS011;25309;48.686;9.170;2023-08-31T00:13:35;3.67;;;1.90;;
39620;SDS011;25309;48.686;9.170;2023-08-31T00:16:02;2.43;;;1.73;;
39620;SDS011;25309;48.686;9.170;2023-08-31T00:18:31;2.37;;;1.80;;
39620;SDS011;25309;48.686;9.170;2023-08-31T00:20:58;3.87;;;2.17;;
39620;SDS011;25309;48.686;9.170;2023-08-31T00:23:25;2.87;;;2.10;;
39620;SDS011;25309;48.686;9.170;2023-08-31T00:25:52;5.13;;;2.10;;
39620;SDS011;25309;48.686;9.170;2023-08-31T00:28:21;2.73;;;1.97;;
39620;SDS011;25309;48.686;9.170;2023-08-31T00:30:48;2.90;;;1.77;;
39620;SDS011;25309;48.686;9.170;2023-08-31T00:33:16;3.33;;;2.07;;
39620;SDS011;25309;48.686;9.170;2023-08-31T00:35:44;3.13;;;1.60;;
39620;SDS011;25309;48.686;9.170;2023-08-31T00:38:14;2.87;;;1.90;;
39620;SDS011;25309;48.686;9.170;2023-08-31T00:40:41;3.43;;;1.97;;
39620;SDS011;25309;48.686;9.170;2023-08-31T00:43:11;2.90;;;1.90;;
39620;SDS011;25309;48.686;9.170;2023-08-31T00:45:43;2.53;;;1.80;;
39620;SDS011;25309;48.686;9.170;2023-08-31T00:48:11;2.37;;;1.67;;
39620;SDS011;25309;48.686;9.170;2023-08-31T00:50:41;3.67;;;2.00;;
39620;SDS011;25309;48.686;9.170;2023-08-31T00:53:08;2.40;;;1.70;;
39620;SDS011;25309;48.686;9.170;2023-08-31T00:55:35;4.27;;;1.77;;
39620;SDS011;25309;48.686;9.170;2023-08-31T00:58:04;3.37;;;2.07;;
39620;SDS011;25309;48.686;9.170;2023-08-31T01:00:33;4.07;;;1.97;;
39620;SDS011;25309;48.686;9.170;2023-08-31T01:03:09;3.90;;;2.00;;
39620;SDS011;25309;48.686;9.170;2023-08-31T01:05:41;3.03;;;2.00;;
39620;SDS011;25309;48.686;9.170;2023-08-31T01:08:19;2.33;;;1.80;;
39620;SDS011;25309;48.686;9.170;2023-08-31T01:10:55;3.50;;;2.10;;
39620;SDS011;25309;48.686;9.170;2023-08-31T01:13:30;2.80;;;1.90;;
39620;SDS011;25309;48.686;9.170;2023-08-31T01:16:00;3.30;;;2.00;;
39620;SDS011;25309;48.686;9.170;2023-08-31T01:18:33;3.13;;;2.03;;
39620;SDS011;25309;48.686;9.170;2023-08-31T01:21:03;2.40;;;2.00;;
39620;SDS011;25309;48.686;9.170;2023-08-31T01:23:50;3.33;;;2.13;;
39620;SDS011;25309;48.686;9.170;2023-08-31T01:26:19;3.53;;;2.00;;
39620;SDS011;25309;48.686;9.170;2023-08-31T01:28:49;4.50;;;2.20;;
39620;SDS011;25309;48.686;9.170;2023-08-31T01:31:17;3.60;;;2.20;;
39620;SDS011;25309;48.686;9.170;2023-08-31T01:33:46;3.93;;;2.37;;
39620;SDS011;25309;48.686;9.170;2023-08-31T01:36:23;4.37;;;2.10;;
39620;SDS011;25309;48.686;9.170;2023-08-31T01:38:57;4.13;;;2.23;;
39620;SDS011;25309;48.686;9.170;2023-08-31T01:41:30;2.87;;;2.00;;
39620;SDS011;25309;48.686;9.170;2023-08-31T01:44:01;3.47;;;2.10;;
39620;SDS011;25309;48.686;9.170;2023-08-31T01:46:29;3.73;;;2.30;;
39620;SDS011;25309;48.686;9.170;2023-08-31T01:48:58;3.40;;;2.07;;
39620;SDS011;25309;48.686;9.170;2023-08-31T01:51:25;3.07;;;2.20;;
39620;SDS011;25309;48.686;9.170;2023-08-31T01:53:53;5.30;;;2.30;;
39620;SDS011;25309;48.686;9.170;2023-08-31T01:56:21;2.73;;;1.90;;
39620;SDS011;25309;48.686;9.170;2023-08-31T01:58:48;4.10;;;2.10;;
39620;SDS011;25309;48.686;9.170;2023-08-31T02:01:15;3.60;;;2.03;;
39620;SDS011;25309;48.686;9.170;2023-08-31T02:03:42;2.60;;;1.90;;
39620;SDS011;25309;48.686;9.170;2023-08-31T02:06:09;2.77;;;1.97;;
39620;SDS011;25309;48.686;9.170;2023-08-31T02:08:38;3.73;;;2.20;;
39620;SDS011;25309;48.686;9.170;2023-08-31T02:11:05;3.10;;;2.10;;
39620;SDS011;25309;48.686;9.170;2023-08-31T02:13:34;2.87;;;2.00;;
39620;SDS011;25309;48.686;9.170;2023-08-31T02:16:01;3.17;;;1.93;;
39620;SDS011;25309;48.686;9.170;2023-08-31T02:18:28;3.20;;;1.97;;
39620;SDS011;25309;48.686;9.170;2023-08-31T02:20:54;3.17;;;1.90;;
39620;SDS011;25309;48.686;9.170;2023-08-31T02:23:22;2.63;;;1.87;;
39620;SDS011;25309;48.686;9.170;2023-08-31T02:25:49;3.13;;;2.00;;
39620;SDS011;25309;48.686;9.170;2023-08-31T02:28:16;2.93;;;2.13;;
39620;SDS011;25309;48.686;9.170;2023-08-31T02:30:55;3.60;;;2.40;;
39620;SDS011;25309;48.686;9.170;2023-08-31T02:33:24;4.67;;;2.17;;
39620;SDS011;25309;48.686;9.170;2023-08-31T02:35:51;2.63;;;2.00;;
39620;SDS011;25309;48.686;9.170;2023-08-31T02:38:19;3.13;;;2.00;;
39620;SDS011;25309;48.686;9.170;2023-08-31T02:40:46;3.60;;;2.17;;
39620;SDS011;25309;48.686;9.170;2023-08-31T02:43:13;2.93;;;2.20;;
39620;SDS011;25309;48.686;9.170;2023-08-31T02:45:40;3.53;;;2.50;;
39620;SDS011;25309;48.686;9.170;2023-08-31T02:48:09;3.87;;;2.13;;
39620;SDS011;25309;48.686;9.170;2023-08-31T02:50:37;3.93;;;2.30;;
39620;SDS011;25309;48.686;9.170;2023-08-31T02:53:05;3.20;;;2.47;;
39620;SDS011;25309;48.686;9.170;2023-08-31T02:55:32;2.90;;;2.20;;
39620;SDS011;25309;48.686;9.170;2023-08-31T02:57:59;2.70;;;2.20;;
39620;SDS011;25309;48.686;9.170;2023-08-31T03:00:26;4.27;;;2.40;;
39620;SDS011;25309;48.686;9.170;2023-08-31T03:02:54;3.70;;;2.20;;
39620;SDS011;25309;48.686;9.170;2023-08-31T03:05:23;3.17;;;2.20;;
39620;SDS011;25309;48.686;9.170;2023-08-31T03:07:50;4.17;;;2.63;;
39620;SDS011;25309;48.686;9.170;2023-08-31T03:10:17;3.80;;;2.43;;
39620;SDS011;25309;48.686;9.170;2023-08-31T03:12:44;4.10;;;2.47;;
39620;SDS011;25309;48.686;9.170;2023-08-31T03:15:11;6.10;;;2.47;;
39620;SDS011;25309;48.686;9.170;2023-08-31T03:17:38;4.17;;;2.37;;
39620;SDS011;25309;48.686;9.170;2023-08-31T03:20:08;3.47;;;2.30;;
39620;SDS011;25309;48.686;9.170;2023-08-31T03:22:37;4.03;;;2.50;;
39620;SDS011;25309;48.686;9.170;2023-08-31T03:25:05;5.00;;;2.73;;
39620;SDS011;25309;48.686;9.170;2023-08-31T03:27:32;4.57;;;2.70;;
39620;SDS011;25309;48.686;9.170;2023-08-31T03:30:00;3.93;;;2.40;;
39620;SDS011;25309;48.686;9.170;2023-08-31T03:32:27;4.43;;;2.80;;
39620;SDS011;25309;48.686;9.170;2023-08-31T03:34:54;7.00;;;2.80;;
39620;SDS011;25309;48.686;9.170;2023-08-31T03:37:21;3.73;;;2.70;;
39620;SDS011;25309;48.686;9.170;2023-08-31T03:39:50;2.80;;;2.40;;
39620;SDS011;25309;48.686;9.170;2023-08-31T03:42:17;5.73;;;2.50;;
39620;SDS011;25309;48.686;9.170;2023-08-31T03:44:44;3.37;;;2.50;;
39620;SDS011;25309;48.686;9.170;2023-08-31T03:47:10;3.83;;;2.47;;
39620;SDS011;25309;48.686;9.170;2023-08-31T03:49:38;5.43;;;2.57;;
39620;SDS011;25309;48.686;9.170;2023-08-31T03:52:06;3.70;;;2.60;;
39620;SDS011;25309;48.686;9.170;2023-08-31T03:54:33;3.63;;;2.47;;
39620;SDS011;25309;48.686;9.170;2023-08-31T03:57:02;5.13;;;3.00;;
39620;SDS011;25309;48.686;9.170;2023-08-31T03:59:29;5.53;;;2.60;;
39620;SDS011;25309;48.686;9.170;2023-08-31T04:01:56;3.50;;;2.33;;
39620;SDS011;25309;48.686;9.170;2023-08-31T04:04:25;4.60;;;2.70;;
39620;SDS011;25309;48.686;9.170;2023-08-31T04:06:52;4.57;;;2.60;;
39620;SDS011;25309;48.686;9.170;2023-08-31T04:09:18;4.67;;;2.53;;
39620;SDS011;25309;48.686;9.170;2023-08-31T04:11:45;4.03;;;2.60;;
39620;SDS011;25309;48.686;9.170;2023-08-31T04:14:14;6.37;;;2.60;;
39620;SDS011;25309;48.686;9.170;2023-08-31T04:16:41;5.33;;;2.37;;
39620;SDS011;25309;48.686;9.170;2023-08-31T04:19:07;5.30;;;2.60;;
39620;SDS011;25309;48.686;9.170;2023-08-31T04:21:34;5.90;;;2.53;;
39620;SDS011;25309;48.686;9.170;2023-08-31T04:24:02;6.33;;;2.70;;
39620;SDS011;25309;48.686;9.170;2023-08-31T04:26:29;4.70;;;2.67;;
39620;SDS011;25309;48.686;9.170;2023-08-31T04:28:56;5.70;;;2.70;;
39620;SDS011;25309;48.686;9.170;2023-08-31T04:31:24;3.60;;;2.90;;
39620;SDS011;25309;48.686;9.170;2023-08-31T04:33:52;5.80;;;2.93;;
39620;SDS011;25309;48.686;9.170;2023-08-31T04:36:21;4.37;;;2.57;;
39620;SDS011;25309;48.686;9.170;2023-08-31T04:38:48;5.93;;;4.17;;
39620;SDS011;25309;48.686;9.170;2023-08-31T04:41:15;5.47;;;3.37;;
39620;SDS011;25309;48.686;9.170;2023-08-31T04:43:42;6.20;;;3.17;;
39620;SDS011;25309;48.686;9.170;2023-08-31T04:46:09;5.57;;;3.50;;
39620;SDS011;25309;48.686;9.170;2023-08-31T04:48:38;4.30;;;2.93;;
39620;SDS011;25309;48.686;9.170;2023-08-31T04:51:05;6.10;;;3.80;;
39620;SDS011;25309;48.686;9.170;2023-08-31T04:53:32;4.13;;;2.73;;
39620;SDS011;25309;48.686;9.170;2023-08-31T04:55:59;4.10;;;2.73;;
39620;SDS011;25309;48.686;9.170;2023-08-31T04:58:26;5.27;;;2.80;;
39620;SDS011;25309;48.686;9.170;2023-08-31T05:00:53;4.83;;;3.00;;
39620;SDS011;25309;48.686;9.170;2023-08-31T05:03:20;3.80;;;2.57;;
39620;SDS011;25309;48.686;9.170;2023-08-31T05:05:48;3.33;;;2.67;;
39620;SDS011;25309;48.686;9.170;2023-08-31T05:08:15;4.07;;;2.80;;
39620;SDS011;25309;48.686;9.170;2023-08-31T05:10:42;4.53;;;2.50;;
39620;SDS011;25309;48.686;9.170;2023-08-31T05:13:11;3.77;;;2.67;;
39620;SDS011;25309;48.686;9.170;2023-08-31T05:15:38;3.70;;;2.43;;
39620;SDS011;25309;48.686;9.170;2023-08-31T05:18:05;4.40;;;2.43;;
39620;SDS011;25309;48.686;9.170;2023-08-31T05:20:35;3.93;;;2.70;;
39620;SDS011;25309;48.686;9.170;2023-08-31T05:23:03;4.23;;;2.50;;
39620;SDS011;25309;48.686;9.170;2023-08-31T05:25:30;3.80;;;2.70;;
39620;SDS011;25309;48.686;9.170;2023-08-31T05:27:57;8.20;;;2.70;;
39620;SDS011;25309;48.686;9.170;2023-08-31T05:30:24;4.20;;;2.70;;
39620;SDS011;25309;48.686;9.170;2023-08-31T05:32:51;7.20;;;2.70;;
39620;SDS011;25309;48.686;9.170;2023-08-31T05:35:18;3.57;;;2.50;;
39620;SDS011;25309;48.686;9.170;2023-08-31T05:37:45;5.03;;;2.50;;
39620;SDS011;25309;48.686;9.170;2023-08-31T05:40:14;4.27;;;2.63;;
39620;SDS011;25309;48.686;9.170;2023-08-31T05:42:43;4.73;;;2.63;;
39620;SDS011;25309;48.686;9.170;2023-08-31T05:45:10;3.73;;;2.67;;
39620;SDS011;25309;48.686;9.170;2023-08-31T05:47:36;4.43;;;2.70;;
39620;SDS011;25309;48.686;9.170;2023-08-31T05:50:05;5.43;;;2.60;;
39620;SDS011;25309;48.686;9.170;2023-08-31T05:52:32;4.40;;;2.57;;
39620;SDS011;25309;48.686;9.170;2023-08-31T05:54:59;5.00;;;2.70;;
39620;SDS011;25309;48.686;9.170;2023-08-31T05:57:28;4.70;;;2.97;;
39620;SDS011;25309;48.686;9.170;2023-08-31T05:59:55;6.80;;;3.03;;
39620;SDS011;25309;48.686;9.170;2023-08-31T06:02:22;6.63;;;3.00;;
39620;SDS011;25309;48.686;9.170;2023-08-31T06:04:49;4.13;;;2.87;;
39620;SDS011;25309;48.686;9.170;2023-08-31T06:07:16;3.63;;;2.70;;
39620;SDS011;25309;48.686;9.170;2023-08-31T06:09:43;5.47;;;2.80;;
39620;SDS011;25309;48.686;9.170;2023-08-31T06:12:10;4.40;;;2.63;;
39620;SDS011;25309;48.686;9.170;2023-08-31T06:14:38;4.43;;;2.80;;
39620;SDS011;25309;48.686;9.170;2023-08-31T06:17:05;4.67;;;3.13;;
39620;SDS011;25309;48.686;9.170;2023-08-31T06:19:32;4.53;;;2.80;;
39620;SDS011;25309;48.686;9.170;2023-08-31T06:21:59;5.23;;;2.80;;
39620;SDS011;25309;48.686;9.170;2023-08-31T06:24:26;5.00;;;2.90;;
39620;SDS011;25309;48.686;9.170;2023-08-31T06:26:52;6.03;;;3.27;;
39620;SDS011;25309;48.686;9.170;2023-08-31T06:29:21;4.10;;;3.20;;
39620;SDS011;25309;48.686;9.170;2023-08-31T06:31:49;7.50;;;3.00;;
39620;SDS011;25309;48.686;9.170;2023-08-31T06:34:16;5.07;;;2.93;;
39620;SDS011;25309;48.686;9.170;2023-08-31T06:36:43;4.67;;;2.57;;
39620;SDS011;25309;48.686;9.170;2023-08-31T06:39:11;4.57;;;2.80;;
39620;SDS011;25309;48.686;9.170;2023-08-31T06:41:38;5.70;;;2.97;;
39620;SDS011;25309;48.686;9.170;2023-08-31T06:44:05;4.83;;;2.93;;
39620;SDS011;25309;48.686;9.170;2023-08-31T06:46:32;4.43;;;2.87;;
39620;SDS011;25309;48.686;9.170;2023-08-31T06:49:05;4.17;;;2.90;;
39620;SDS011;25309;48.686;9.170;2023-08-31T06:51:32;5.90;;;3.50;;
39620;SDS011;25309;48.686;9.170;2023-08-31T06:53:59;5.47;;;2.77;;
39620;SDS011;25309;48.686;9.170;2023-08-31T06:56:32;4.67;;;2.90;;
39620;SDS011;25309;48.686;9.170;2023-08-31T06:58:59;3.47;;;2.60;;
39620;SDS011;25309;48.686;9.170;2023-08-31T07:01:26;5.97;;;2.87;;
39620;SDS011;25309;48.686;9.170;2023-08-31T07:03:54;7.57;;;3.27;;
39620;SDS011;25309;48.686;9.170;2023-08-31T07:06:23;5.37;;;3.13;;
39620;SDS011;25309;48.686;9.170;2023-08-31T07:08:50;5.00;;;2.73;;
39620;SDS011;25309;48.686;9.170;2023-08-31T07:11:17;4.73;;;2.40;;
39620;SDS011;25309;48.686;9.170;2023-08-31T07:13:44;4.23;;;2.43;;
39620;SDS011;25309;48.686;9.170;2023-08-31T07:16:11;3.87;;;2.57;;
39620;SDS011;25309;48.686;9.170;2023-08-31T07:18:38;4.23;;;2.50;;
39620;SDS011;25309;48.686;9.170;2023-08-31T07:21:05;6.33;;;3.20;;
39620;SDS011;25309;48.686;9.170;2023-08-31T07:23:34;3.77;;;2.53;;
39620;SDS011;25309;48.686;9.170;2023-08-31T07:26:02;5.03;;;2.63;;
39620;SDS011;25309;48.686;9.170;2023-08-31T07:28:31;3.90;;;2.30;;
39620;SDS011;25309;48.686;9.170;2023-08-31T07:31:01;4.40;;;2.40;;
39620;SDS011;25309;48.686;9.170;2023-08-31T07:33:30;5.70;;;2.40;;
39620;SDS011;25309;48.686;9.170;2023-08-31T07:35:58;4.17;;;2.00;;
39620;SDS011;25309;48.686;9.170;2023-08-31T07:38:26;5.73;;;2.30;;
39620;SDS011;25309;48.686;9.170;2023-08-31T07:40:55;4.07;;;2.10;;
39620;SDS011;25309;48.686;9.170;2023-08-31T07:43:22;5.60;;;2.00;;
39620;SDS011;25309;48.686;9.170;2023-08-31T07:45:49;4.00;;;2.00;;
39620;SDS011;25309;48.686;9.170;2023-08-31T07:48:16;3.23;;;2.23;;
39620;SDS011;25309;48.686;9.170;2023-08-31T07:50:43;2.73;;;2.00;;
39620;SDS011;25309;48.686;9.170;2023-08-31T07:53:10;4.97;;;2.00;;
39620;SDS011;25309;48.686;9.170;2023-08-31T07:55:38;3.63;;;2.27;;
39620;SDS011;25309;48.686;9.170;2023-08-31T07:58:07;3.03;;;1.70;;
39620;SDS011;25309;48.686;9.170;2023-08-31T08:00:34;5.13;;;1.87;;
39620;SDS011;25309;48.686;9.170;2023-08-31T08:03:01;3.80;;;1.77;;
39620;SDS011;25309;48.686;9.170;2023-08-31T08:05:28;4.70;;;2.10;;
39620;SDS011;25309;48.686;9.170;2023-08-31T08:07:55;4.17;;;2.00;;
39620;SDS011;25309;48.686;9.170;2023-08-31T08:10:22;3.70;;;1.90;;
39620;SDS011;25309;48.686;9.170;2023-08-31T08:12:49;3.23;;;1.83;;
39620;SDS011;25309;48.686;9.170;2023-08-31T08:15:17;2.77;;;1.90;;
39620;SDS011;25309;48.686;9.170;2023-08-31T08:17:44;3.37;;;1.87;;
39620;SDS011;25309;48.686;9.170;2023-08-31T08:20:11;3.70;;;1.90;;
39620;SDS011;25309;48.686;9.170;2023-08-31T08:22:39;4.17;;;1.87;;
39620;SDS011;25309;48.686;9.170;2023-08-31T08:25:06;3.83;;;1.83;;
39620;SDS011;25309;48.686;9.170;2023-08-31T08:27:33;2.57;;;1.70;;
39620;SDS011;25309;48.686;9.170;2023-08-31T08:30:03;4.87;;;2.10;;
39620;SDS011;25309;48.686;9.170;2023-08-31T08:32:33;5.20;;;2.00;;
39620;SDS011;25309;48.686;9.170;2023-08-31T08:35:01;5.07;;;1.90;;
39620;SDS011;25309;48.686;9.170;2023-08-31T08:37:28;3.20;;;1.53;;
39620;SDS011;25309;48.686;9.170;2023-08-31T08:39:55;5.60;;;1.77;;
39620;SDS011;25309;48.686;9.170;2023-08-31T08:42:23;4.73;;;1.60;;
39620;SDS011;25309;48.686;9.170;2023-08-31T08:44:51;4.50;;;1.83;;
39620;SDS011;25309;48.686;9.170;2023-08-31T08:47:19;3.63;;;1.77;;
39620;SDS011;25309;48.686;9.170;2023-08-31T08:49:47;4.40;;;2.17;;
39620;SDS011;25309;48.686;9.170;2023-08-31T08:52:15;3.53;;;2.00;;
39620;SDS011;25309;48.686;9.170;2023-08-31T08:54:42;3.90;;;1.80;;
39620;SDS011;25309;48.686;9.170;2023-08-31T08:57:09;5.83;;;1.97;;
39620;SDS011;25309;48.686;9.170;2023-08-31T08:59:36;4.00;;;1.73;;
39620;SDS011;25309;48.686;9.170;2023-08-31T09:02:04;3.60;;;1.77;;
39620;SDS011;25309;48.686;9.170;2023-08-31T09:04:33;3.63;;;1.70;;
39620;SDS011;25309;48.686;9.170;2023-08-31T09:07:02;3.17;;;1.67;;
39620;SDS011;25309;48.686;9.170;2023-08-31T09:09:29;5.20;;;2.17;;
39620;SDS011;25309;48.686;9.170;2023-08-31T09:11:56;3.73;;;1.93;;
39620;SDS011;25309;48.686;9.170;2023-08-31T09:14:23;3.03;;;1.67;;
39620;SDS011;25309;48.686;9.170;2023-08-31T09:16:51;2.83;;;1.93;;
39620;SDS011;25309;48.686;9.170;2023-08-31T09:19:18;5.93;;;2.20;;
39620;SDS011;25309;48.686;9.170;2023-08-31T09:21:46;3.17;;;1.57;;
39620;SDS011;25309;48.686;9.170;2023-08-31T09:24:15;7.07;;;2.10;;
39620;SDS011;25309;48.686;9.170;2023-08-31T09:26:44;3.50;;;1.73;;
39620;SDS011;25309;48.686;9.170;2023-08-31T09:29:12;3.73;;;1.90;;
39620;SDS011;25309;48.686;9.170;2023-08-31T09:31:41;3.00;;;1.50;;
39620;SDS011;25309;48.686;9.170;2023-08-31T09:34:10;3.40;;;1.90;;
39620;SDS011;25309;48.686;9.170;2023-08-31T09:36:37;3.77;;;1.80;;
39620;SDS011;25309;48.686;9.170;2023-08-31T09:39:05;3.50;;;1.90;;
39620;SDS011;25309;48.686;9.170;2023-08-31T09:41:33;4.00;;;2.00;;
39620;SDS011;25309;48.686;9.170;2023-08-31T09:44:14;2.93;;;1.70;;
39620;SDS011;25309;48.686;9.170;2023-08-31T09:46:42;3.30;;;1.80;;
39620;SDS011;25309;48.686;9.170;2023-08-31T09:49:10;4.50;;;1.90;;
39620;SDS011;25309;48.686;9.170;2023-08-31T09:51:39;4.87;;;2.30;;
39620;SDS011;25309;48.686;9.170;2023-08-31T09:54:09;6.13;;;2.23;;
39620;SDS011;25309;48.686;9.170;2023-08-31T09:56:42;4.47;;;1.80;;
39620;SDS011;25309;48.686;9.170;2023-08-31T09:59:09;5.60;;;1.80;;
39620;SDS011;25309;48.686;9.170;2023-08-31T10:01:37;4.73;;;1.87;;
39620;SDS011;25309;48.686;9.170;2023-08-31T10:04:05;4.43;;;1.90;;
39620;SDS011;25309;48.686;9.170;2023-08-31T10:06:35;3.20;;;1.70;;
39620;SDS011;25309;48.686;9.170;2023-08-31T10:09:05;5.90;;;2.03;;
39620;SDS011;25309;48.686;9.170;2023-08-31T10:11:33;3.67;;;1.80;;
39620;SDS011;25309;48.686;9.170;2023-08-31T10:14:02;4.60;;;1.80;;
39620;SDS011;25309;48.686;9.170;2023-08-31T10:16:30;4.80;;;1.77;;
39620;SDS011;25309;48.686;9.170;2023-08-31T10:18:58;3.50;;;1.90;;
39620;SDS011;25309;48.686;9.170;2023-08-31T10:21:25;4.87;;;1.83;;
39620;SDS011;25309;48.686;9.170;2023-08-31T10:23:52;4.00;;;1.83;;
39620;SDS011;25309;48.686;9.170;2023-08-31T10:26:22;4.30;;;1.97;;
39620;SDS011;25309;48.686;9.170;2023-08-31T10:28:51;4.20;;;1.77;;
39620;SDS011;25309;48.686;9.170;2023-08-31T10:31:20;5.23;;;2.10;;
39620;SDS011;25309;48.686;9.170;2023-08-31T10:33:56;6.63;;;2.20;;
39620;SDS011;25309;48.686;9.170;2023-08-31T10:36:34;4.43;;;1.70;;
39620;SDS011;25309;48.686;9.170;2023-08-31T10:39:07;3.13;;;1.97;;
39620;SDS011;25309;48.686;9.170;2023-08-31T10:41:39;4.07;;;1.70;;
39620;SDS011;25309;48.686;9.170;2023-08-31T10:47:00;3.87;;;2.10;;
39620;SDS011;25309;48.686;9.170;2023-08-31T10:49:30;3.90;;;2.07;;
39620;SDS011;25309;48.686;9.170;2023-08-31T10:52:14;3.47;;;1.90;;
39620;SDS011;25309;48.686;9.170;2023-08-31T10:55:05;3.43;;;2.10;;
39620;SDS011;25309;48.686;9.170;2023-08-31T10:57:35;2.93;;;1.60;;
39620;SDS011;25309;48.686;9.170;2023-08-31T11:00:02;4.00;;;1.80;;
39620;SDS011;25309;48.686;9.170;2023-08-31T11:02:35;4.57;;;1.70;;
39620;SDS011;25309;48.686;9.170;2023-08-31T11:05:05;3.93;;;1.90;;
39620;SDS011;25309;48.686;9.170;2023-08-31T11:07:34;4.20;;;1.83;;
39620;SDS011;25309;48.686;9.170;2023-08-31T11:10:06;5.13;;;1.97;;
39620;SDS011;25309;48.686;9.170;2023-08-31T11:12:36;4.10;;;1.90;;
39620;SDS011;25309;48.686;9.170;2023-08-31T11:15:04;3.23;;;1.70;;
39620;SDS011;25309;48.686;9.170;2023-08-31T11:17:31;4.13;;;1.90;;
39620;SDS011;25309;48.686;9.170;2023-08-31T11:20:01;3.57;;;1.80;;
39620;SDS011;25309;48.686;9.170;2023-08-31T11:22:31;4.93;;;1.97;;
39620;SDS011;25309;48.686;9.170;2023-08-31T11:24:59;3.50;;;1.80;;
39620;SDS011;25309;48.686;9.170;2023-08-31T11:27:26;3.83;;;1.83;;
39620;SDS011;25309;48.686;9.170;2023-08-31T11:29:53;4.00;;;1.73;;
39620;SDS011;25309;48.686;9.170;2023-08-31T11:32:22;4.17;;;1.90;;
39620;SDS011;25309;48.686;9.170;2023-08-31T11:34:50;4.53;;;1.90;;
39620;SDS011;25309;48.686;9.170;2023-08-31T11:37:18;5.20;;;1.97;;
39620;SDS011;25309;48.686;9.170;2023-08-31T11:39:49;3.60;;;2.03;;
39620;SDS011;25309;48.686;9.170;2023-08-31T11:42:16;3.27;;;2.00;;
39620;SDS011;25309;48.686;9.170;2023-08-31T11:44:44;4.63;;;2.10;;
39620;SDS011;25309;48.686;9.170;2023-08-31T11:47:12;4.00;;;2.00;;
39620;SDS011;25309;48.686;9.170;2023-08-31T11:49:40;3.47;;;1.87;;
39620;SDS011;25309;48.686;9.170;2023-08-31T11:52:08;5.00;;;2.20;;
39620;SDS011;25309;48.686;9.170;2023-08-31T11:54:38;4.17;;;1.97;;
39620;SDS011;25309;48.686;9.170;2023-08-31T11:57:06;4.10;;;2.13;;
39620;SDS011;25309;48.686;9.170;2023-08-31T11:59:35;2.53;;;1.60;;
39620;SDS011;25309;48.686;9.170;2023-08-31T12:02:05;4.93;;;2.20;;
39620;SDS011;25309;48.686;9.170;2023-08-31T12:04:33;3.30;;;1.87;;
39620;SDS011;25309;48.686;9.170;2023-08-31T12:07:10;3.53;;;1.60;;
39620;SDS011;25309;48.686;9.170;2023-08-31T12:09:38;4.27;;;1.80;;
39620;SDS011;25309;48.686;9.170;2023-08-31T12:12:07;3.63;;;1.53;;
39620;SDS011;25309;48.686;9.170;2023-08-31T12:14:36;3.27;;;1.80;;
39620;SDS011;25309;48.686;9.170;2023-08-31T12:17:05;3.33;;;1.73;;
39620;SDS011;25309;48.686;9.170;2023-08-31T12:19:36;4.47;;;1.70;;
39620;SDS011;25309;48.686;9.170;2023-08-31T12:22:03;5.00;;;1.70;;
39620;SDS011;25309;48.686;9.170;2023-08-31T12:24:36;3.47;;;1.97;;
39620;SDS011;25309;48.686;9.170;2023-08-31T12:27:06;3.43;;;1.50;;
39620;SDS011;25309;48.686;9.170;2023-08-31T12:29:33;4.40;;;1.60;;
39620;SDS011;25309;48.686;9.170;2023-08-31T12:32:00;4.03;;;1.80;;
39620;SDS011;25309;48.686;9.170;2023-08-31T12:34:28;3.23;;;1.67;;
39620;SDS011;25309;48.686;9.170;2023-08-31T12:36:57;3.90;;;1.80;;
39620;SDS011;25309;48.686;9.170;2023-08-31T12:39:27;4.50;;;1.97;;
39620;SDS011;25309;48.686;9.170;2023-08-31T12:41:56;2.90;;;1.53;;
39620;SDS011;25309;48.686;9.170;2023-08-31T12:44:42;3.53;;;1.77;;
39620;SDS011;25309;48.686;9.170;2023-08-31T12:47:09;4.27;;;1.90;;
39620;SDS011;25309;48.686;9.170;2023-08-31T12:49:36;4.67;;;2.10;;
39620;SDS011;25309;48.686;9.170;2023-08-31T12:52:03;4.40;;;1.80;;
39620;SDS011;25309;48.686;9.170;2023-08-31T12:54:31;4.27;;;1.90;;
39620;SDS011;25309;48.686;9.170;2023-08-31T12:56:59;4.80;;;2.00;;
39620;SDS011;25309;48.686;9.170;2023-08-31T12:59:26;3.40;;;1.97;;
39620;SDS011;25309;48.686;9.170;2023-08-31T13:01:53;4.30;;;1.80;;
39620;SDS011;25309;48.686;9.170;2023-08-31T13:04:20;3.57;;;1.80;;
39620;SDS011;25309;48.686;9.170;2023-08-31T13:06:47;4.47;;;1.70;;
39620;SDS011;25309;48.686;9.170;2023-08-31T13:09:14;4.33;;;1.80;;
39620;SDS011;25309;48.686;9.170;2023-08-31T13:11:41;4.53;;;1.73;;
39620;SDS011;25309;48.686;9.170;2023-08-31T13:14:09;4.10;;;2.03;;
39620;SDS011;25309;48.686;9.170;2023-08-31T13:16:36;3.67;;;1.80;;
39620;SDS011;25309;48.686;9.170;2023-08-31T13:19:06;3.13;;;1.90;;
39620;SDS011;25309;48.686;9.170;2023-08-31T13:21:32;5.17;;;1.73;;
39620;SDS011;25309;48.686;9.170;2023-08-31T13:23:59;2.20;;;1.50;;
39620;SDS011;25309;48.686;9.170;2023-08-31T13:26:26;3.97;;;1.90;;
39620;SDS011;25309;48.686;9.170;2023-08-31T13:28:53;3.67;;;1.80;;
39620;SDS011;25309;48.686;9.170;2023-08-31T13:31:22;3.43;;;1.73;;
39620;SDS011;25309;48.686;9.170;2023-08-31T13:33:49;3.97;;;1.70;;
39620;SDS011;25309;48.686;9.170;2023-08-31T13:36:16;3.93;;;1.80;;
39620;SDS011;25309;48.686;9.170;2023-08-31T13:38:43;4.00;;;1.73;;
39620;SDS011;25309;48.686;9.170;2023-08-31T13:41:10;2.80;;;1.60;;
39620;SDS011;25309;48.686;9.170;2023-08-31T13:43:37;5.73;;;2.03;;
39620;SDS011;25309;48.686;9.170;2023-08-31T13:46:04;2.80;;;1.70;;
39620;SDS011;25309;48.686;9.170;2023-08-31T13:48:32;6.03;;;2.33;;
39620;SDS011;25309;48.686;9.170;2023-08-31T13:50:59;3.70;;;1.80;;
39620;SDS011;25309;48.686;9.170;2023-08-31T13:53:26;3.43;;;1.80;;
39620;SDS011;25309;48.686;9.170;2023-08-31T13:55:53;3.00;;;1.90;;
39620;SDS011;25309;48.686;9.170;2023-08-31T13:58:20;2.40;;;1.53;;
39620;SDS011;25309;48.686;9.170;2023-08-31T14:00:47;3.13;;;1.90;;
39620;SDS011;25309;48.686;9.170;2023-08-31T14:03:15;3.90;;;1.83;;
39620;SDS011;25309;48.686;9.170;2023-08-31T14:05:48;5.00;;;1.80;;
39620;SDS011;25309;48.686;9.170;2023-08-31T14:08:15;2.50;;;1.80;;
39620;SDS011;25309;48.686;9.170;2023-08-31T14:10:42;3.60;;;1.80;;
39620;SDS011;25309;48.686;9.170;2023-08-31T14:13:09;4.53;;;1.80;;
39620;SDS011;25309;48.686;9.170;2023-08-31T14:15:36;3.10;;;1.93;;
39620;SDS011;25309;48.686;9.170;2023-08-31T14:18:10;5.03;;;2.10;;
39620;SDS011;25309;48.686;9.170;2023-08-31T14:20:38;2.73;;;1.93;;
39620;SDS011;25309;48.686;9.170;2023-08-31T14:23:06;3.17;;;1.80;;
39620;SDS011;25309;48.686;9.170;2023-08-31T14:25:34;3.23;;;1.70;;
39620;SDS011;25309;48.686;9.170;2023-08-31T14:28:01;2.97;;;1.57;;
39620;SDS011;25309;48.686;9.170;2023-08-31T14:30:29;3.27;;;1.90;;
39620;SDS011;25309;48.686;9.170;2023-08-31T14:32:56;3.20;;;1.80;;
39620;SDS011;25309;48.686;9.170;2023-08-31T14:35:23;2.77;;;1.73;;
39620;SDS011;25309;48.686;9.170;2023-08-31T14:37:50;5.27;;;2.23;;
39620;SDS011;25309;48.686;9.170;2023-08-31T14:40:18;4.23;;;2.07;;
39620;SDS011;25309;48.686;9.170;2023-08-31T14:42:45;3.17;;;2.00;;
39620;SDS011;25309;48.686;9.170;2023-08-31T14:45:12;3.83;;;2.30;;
39620;SDS011;25309;48.686;9.170;2023-08-31T14:47:39;5.50;;;1.80;;
39620;SDS011;25309;48.686;9.170;2023-08-31T14:50:06;3.93;;;2.10;;
39620;SDS011;25309;48.686;9.170;2023-08-31T14:52:34;3.30;;;1.70;;
39620;SDS011;25309;48.686;9.170;2023-08-31T14:55:01;5.53;;;2.07;;
39620;SDS011;25309;48.686;9.170;2023-08-31T14:57:31;3.90;;;1.80;;